<?xml version="1.0" encoding="UTF-8" standalone="no" ?>
<gpx xmlns="http://www.topografix.com/GPX/1/1" xmlns:xsi="http://www.w3.org/2001/XMLSchema-instance" xsi:schemaLocation="http://www.topografix.com/GPX/1/1 http://www.topografix.com/GPX/1/1/gpx.xsd" version="1.1" creator="VisuGPX - https://www.visugpx.com">
  <metadata>
    <name>Rando slat</name>
    <desc><![CDATA[Sortie 10 Janvier]]></desc>
  </metadata>
  <trk>
    <name><![CDATA[Hourquette de Chermentas 10-JAN-16]]></name>
    <trkseg>
      <trkpt lat="42.7866" lon="0.15337">
        <ele>1836.74</ele>
        <time>2016-01-10T09:16:05Z</time>
      </trkpt>
      <trkpt lat="42.7866" lon="0.15336">
        <ele>1836.74</ele>
        <time>2016-01-10T09:16:07Z</time>
      </trkpt>
      <trkpt lat="42.7866" lon="0.15336">
        <ele>1841.06</ele>
        <time>2016-01-10T09:16:13Z</time>
      </trkpt>
      <trkpt lat="42.78644" lon="0.15302">
        <ele>1839.14</ele>
        <time>2016-01-10T09:18:02Z</time>
      </trkpt>
      <trkpt lat="42.78641" lon="0.15297">
        <ele>1839.14</ele>
        <time>2016-01-10T09:21:12Z</time>
      </trkpt>
      <trkpt lat="42.78627" lon="0.15281">
        <ele>1835.29</ele>
        <time>2016-01-10T09:21:23Z</time>
      </trkpt>
      <trkpt lat="42.78614" lon="0.15242">
        <ele>1831.93</ele>
        <time>2016-01-10T09:21:32Z</time>
      </trkpt>
      <trkpt lat="42.78609" lon="0.1515">
        <ele>1828.56</ele>
        <time>2016-01-10T09:22:02Z</time>
      </trkpt>
      <trkpt lat="42.78613" lon="0.1511">
        <ele>1828.08</ele>
        <time>2016-01-10T09:22:19Z</time>
      </trkpt>
      <trkpt lat="42.7862" lon="0.15048">
        <ele>1828.08</ele>
        <time>2016-01-10T09:22:46Z</time>
      </trkpt>
      <trkpt lat="42.78603" lon="0.15004">
        <ele>1827.6</ele>
        <time>2016-01-10T09:23:12Z</time>
      </trkpt>
      <trkpt lat="42.78575" lon="0.14879">
        <ele>1829.53</ele>
        <time>2016-01-10T09:24:35Z</time>
      </trkpt>
      <trkpt lat="42.78559" lon="0.148">
        <ele>1833.37</ele>
        <time>2016-01-10T09:25:27Z</time>
      </trkpt>
      <trkpt lat="42.78546" lon="0.1476">
        <ele>1836.74</ele>
        <time>2016-01-10T09:25:57Z</time>
      </trkpt>
      <trkpt lat="42.78542" lon="0.14744">
        <ele>1838.18</ele>
        <time>2016-01-10T09:26:09Z</time>
      </trkpt>
      <trkpt lat="42.78537" lon="0.14724">
        <ele>1841.54</ele>
        <time>2016-01-10T09:26:27Z</time>
      </trkpt>
      <trkpt lat="42.78535" lon="0.14702">
        <ele>1843.47</ele>
        <time>2016-01-10T09:26:44Z</time>
      </trkpt>
      <trkpt lat="42.78528" lon="0.14673">
        <ele>1846.83</ele>
        <time>2016-01-10T09:27:10Z</time>
      </trkpt>
      <trkpt lat="42.78509" lon="0.14611">
        <ele>1851.16</ele>
        <time>2016-01-10T09:28:24Z</time>
      </trkpt>
      <trkpt lat="42.78506" lon="0.14601">
        <ele>1855</ele>
        <time>2016-01-10T09:28:52Z</time>
      </trkpt>
      <trkpt lat="42.78469" lon="0.14507">
        <ele>1857.4</ele>
        <time>2016-01-10T09:30:21Z</time>
      </trkpt>
      <trkpt lat="42.78466" lon="0.14498">
        <ele>1858.85</ele>
        <time>2016-01-10T09:31:07Z</time>
      </trkpt>
      <trkpt lat="42.78464" lon="0.14497">
        <ele>1857.4</ele>
        <time>2016-01-10T09:31:38Z</time>
      </trkpt>
      <trkpt lat="42.78457" lon="0.14493">
        <ele>1858.85</ele>
        <time>2016-01-10T09:32:30Z</time>
      </trkpt>
      <trkpt lat="42.78462" lon="0.14495">
        <ele>1857.89</ele>
        <time>2016-01-10T09:34:17Z</time>
      </trkpt>
      <trkpt lat="42.78438" lon="0.14463">
        <ele>1863.17</ele>
        <time>2016-01-10T09:35:09Z</time>
      </trkpt>
      <trkpt lat="42.78431" lon="0.14451">
        <ele>1866.54</ele>
        <time>2016-01-10T09:35:27Z</time>
      </trkpt>
      <trkpt lat="42.78414" lon="0.14421">
        <ele>1871.82</ele>
        <time>2016-01-10T09:36:06Z</time>
      </trkpt>
      <trkpt lat="42.78402" lon="0.14404">
        <ele>1875.19</ele>
        <time>2016-01-10T09:36:29Z</time>
      </trkpt>
      <trkpt lat="42.78389" lon="0.14384">
        <ele>1877.11</ele>
        <time>2016-01-10T09:36:52Z</time>
      </trkpt>
      <trkpt lat="42.78363" lon="0.14334">
        <ele>1880.96</ele>
        <time>2016-01-10T09:37:44Z</time>
      </trkpt>
      <trkpt lat="42.78357" lon="0.14309">
        <ele>1882.88</ele>
        <time>2016-01-10T09:38:34Z</time>
      </trkpt>
      <trkpt lat="42.78347" lon="0.14244">
        <ele>1878.07</ele>
        <time>2016-01-10T09:39:30Z</time>
      </trkpt>
      <trkpt lat="42.78331" lon="0.1421">
        <ele>1876.63</ele>
        <time>2016-01-10T09:40:09Z</time>
      </trkpt>
      <trkpt lat="42.78334" lon="0.14195">
        <ele>1875.67</ele>
        <time>2016-01-10T09:40:52Z</time>
      </trkpt>
      <trkpt lat="42.783" lon="0.1413">
        <ele>1878.55</ele>
        <time>2016-01-10T09:42:38Z</time>
      </trkpt>
      <trkpt lat="42.78302" lon="0.14129">
        <ele>1878.55</ele>
        <time>2016-01-10T09:42:40Z</time>
      </trkpt>
      <trkpt lat="42.78301" lon="0.14105">
        <ele>1880.96</ele>
        <time>2016-01-10T09:42:57Z</time>
      </trkpt>
      <trkpt lat="42.78296" lon="0.14085">
        <ele>1884.32</ele>
        <time>2016-01-10T09:43:14Z</time>
      </trkpt>
      <trkpt lat="42.78283" lon="0.14059">
        <ele>1885.76</ele>
        <time>2016-01-10T09:43:48Z</time>
      </trkpt>
      <trkpt lat="42.78246" lon="0.14027">
        <ele>1885.28</ele>
        <time>2016-01-10T09:44:39Z</time>
      </trkpt>
      <trkpt lat="42.78187" lon="0.13945">
        <ele>1885.28</ele>
        <time>2016-01-10T09:46:11Z</time>
      </trkpt>
      <trkpt lat="42.78155" lon="0.13898">
        <ele>1884.32</ele>
        <time>2016-01-10T09:47:04Z</time>
      </trkpt>
      <trkpt lat="42.78139" lon="0.13878">
        <ele>1884.32</ele>
        <time>2016-01-10T09:47:27Z</time>
      </trkpt>
      <trkpt lat="42.78088" lon="0.13817">
        <ele>1886.24</ele>
        <time>2016-01-10T09:48:21Z</time>
      </trkpt>
      <trkpt lat="42.78058" lon="0.13791">
        <ele>1888.65</ele>
        <time>2016-01-10T09:49:01Z</time>
      </trkpt>
      <trkpt lat="42.78032" lon="0.13768">
        <ele>1886.24</ele>
        <time>2016-01-10T09:49:28Z</time>
      </trkpt>
      <trkpt lat="42.77948" lon="0.1367">
        <ele>1882.88</ele>
        <time>2016-01-10T09:51:17Z</time>
      </trkpt>
      <trkpt lat="42.77928" lon="0.13648">
        <ele>1883.84</ele>
        <time>2016-01-10T09:51:45Z</time>
      </trkpt>
      <trkpt lat="42.77918" lon="0.13648">
        <ele>1885.76</ele>
        <time>2016-01-10T09:51:55Z</time>
      </trkpt>
      <trkpt lat="42.77879" lon="0.13606">
        <ele>1889.61</ele>
        <time>2016-01-10T09:52:56Z</time>
      </trkpt>
      <trkpt lat="42.77849" lon="0.13582">
        <ele>1892.49</ele>
        <time>2016-01-10T09:53:50Z</time>
      </trkpt>
      <trkpt lat="42.77826" lon="0.13569">
        <ele>1895.86</ele>
        <time>2016-01-10T09:54:48Z</time>
      </trkpt>
      <trkpt lat="42.77814" lon="0.1356">
        <ele>1901.63</ele>
        <time>2016-01-10T09:55:25Z</time>
      </trkpt>
      <trkpt lat="42.77795" lon="0.13568">
        <ele>1905.95</ele>
        <time>2016-01-10T09:56:03Z</time>
      </trkpt>
      <trkpt lat="42.77788" lon="0.1357">
        <ele>1909.8</ele>
        <time>2016-01-10T09:56:25Z</time>
      </trkpt>
      <trkpt lat="42.77792" lon="0.13563">
        <ele>1906.43</ele>
        <time>2016-01-10T09:56:42Z</time>
      </trkpt>
      <trkpt lat="42.77793" lon="0.13555">
        <ele>1906.91</ele>
        <time>2016-01-10T09:57:01Z</time>
      </trkpt>
      <trkpt lat="42.7779" lon="0.13547">
        <ele>1908.83</ele>
        <time>2016-01-10T09:57:21Z</time>
      </trkpt>
      <trkpt lat="42.7778" lon="0.13551">
        <ele>1912.2</ele>
        <time>2016-01-10T09:57:34Z</time>
      </trkpt>
      <trkpt lat="42.77779" lon="0.13551">
        <ele>1912.2</ele>
        <time>2016-01-10T09:57:35Z</time>
      </trkpt>
      <trkpt lat="42.77752" lon="0.13548">
        <ele>1917.49</ele>
        <time>2016-01-10T09:58:09Z</time>
      </trkpt>
      <trkpt lat="42.77726" lon="0.13541">
        <ele>1920.85</ele>
        <time>2016-01-10T09:58:42Z</time>
      </trkpt>
      <trkpt lat="42.77702" lon="0.13529">
        <ele>1921.81</ele>
        <time>2016-01-10T09:59:14Z</time>
      </trkpt>
      <trkpt lat="42.77677" lon="0.13529">
        <ele>1926.62</ele>
        <time>2016-01-10T09:59:45Z</time>
      </trkpt>
      <trkpt lat="42.77669" lon="0.13526">
        <ele>1929.98</ele>
        <time>2016-01-10T09:59:57Z</time>
      </trkpt>
      <trkpt lat="42.77652" lon="0.13516">
        <ele>1931.43</ele>
        <time>2016-01-10T10:00:21Z</time>
      </trkpt>
      <trkpt lat="42.77635" lon="0.13506">
        <ele>1933.83</ele>
        <time>2016-01-10T10:00:50Z</time>
      </trkpt>
      <trkpt lat="42.77614" lon="0.13471">
        <ele>1937.67</ele>
        <time>2016-01-10T10:01:34Z</time>
      </trkpt>
      <trkpt lat="42.77595" lon="0.13462">
        <ele>1938.64</ele>
        <time>2016-01-10T10:02:11Z</time>
      </trkpt>
      <trkpt lat="42.77584" lon="0.13474">
        <ele>1942.48</ele>
        <time>2016-01-10T10:03:11Z</time>
      </trkpt>
      <trkpt lat="42.77585" lon="0.13475">
        <ele>1942.48</ele>
        <time>2016-01-10T10:03:28Z</time>
      </trkpt>
      <trkpt lat="42.77581" lon="0.13476">
        <ele>1938.64</ele>
        <time>2016-01-10T10:04:28Z</time>
      </trkpt>
      <trkpt lat="42.77558" lon="0.13481">
        <ele>1940.08</ele>
        <time>2016-01-10T10:08:11Z</time>
      </trkpt>
      <trkpt lat="42.77552" lon="0.13482">
        <ele>1943.44</ele>
        <time>2016-01-10T10:08:18Z</time>
      </trkpt>
      <trkpt lat="42.7755" lon="0.13481">
        <ele>1943.92</ele>
        <time>2016-01-10T10:08:21Z</time>
      </trkpt>
      <trkpt lat="42.77543" lon="0.1348">
        <ele>1954.5</ele>
        <time>2016-01-10T10:08:31Z</time>
      </trkpt>
      <trkpt lat="42.77543" lon="0.13481">
        <ele>1948.73</ele>
        <time>2016-01-10T10:08:32Z</time>
      </trkpt>
      <trkpt lat="42.77543" lon="0.1348">
        <ele>1943.92</ele>
        <time>2016-01-10T10:08:34Z</time>
      </trkpt>
      <trkpt lat="42.77534" lon="0.13482">
        <ele>1940.56</ele>
        <time>2016-01-10T10:08:50Z</time>
      </trkpt>
      <trkpt lat="42.77515" lon="0.13488">
        <ele>1946.81</ele>
        <time>2016-01-10T10:09:09Z</time>
      </trkpt>
      <trkpt lat="42.77513" lon="0.1349">
        <ele>1951.13</ele>
        <time>2016-01-10T10:09:11Z</time>
      </trkpt>
      <trkpt lat="42.77512" lon="0.1349">
        <ele>1942.96</ele>
        <time>2016-01-10T10:09:12Z</time>
      </trkpt>
      <trkpt lat="42.77509" lon="0.13492">
        <ele>1949.69</ele>
        <time>2016-01-10T10:09:15Z</time>
      </trkpt>
      <trkpt lat="42.77509" lon="0.13493">
        <ele>1949.69</ele>
        <time>2016-01-10T10:09:16Z</time>
      </trkpt>
      <trkpt lat="42.77503" lon="0.13494">
        <ele>1948.73</ele>
        <time>2016-01-10T10:09:22Z</time>
      </trkpt>
      <trkpt lat="42.77493" lon="0.13491">
        <ele>1947.29</ele>
        <time>2016-01-10T10:09:31Z</time>
      </trkpt>
      <trkpt lat="42.7747" lon="0.13466">
        <ele>1950.65</ele>
        <time>2016-01-10T10:10:09Z</time>
      </trkpt>
      <trkpt lat="42.77468" lon="0.1345">
        <ele>1954.02</ele>
        <time>2016-01-10T10:10:49Z</time>
      </trkpt>
      <trkpt lat="42.77467" lon="0.13454">
        <ele>1951.61</ele>
        <time>2016-01-10T10:11:05Z</time>
      </trkpt>
      <trkpt lat="42.77477" lon="0.13487">
        <ele>1948.25</ele>
        <time>2016-01-10T10:11:24Z</time>
      </trkpt>
      <trkpt lat="42.77472" lon="0.13491">
        <ele>1946.81</ele>
        <time>2016-01-10T10:12:16Z</time>
      </trkpt>
      <trkpt lat="42.7747" lon="0.13488">
        <ele>1946.33</ele>
        <time>2016-01-10T10:13:14Z</time>
      </trkpt>
      <trkpt lat="42.77447" lon="0.13485">
        <ele>1947.77</ele>
        <time>2016-01-10T10:15:00Z</time>
      </trkpt>
      <trkpt lat="42.77438" lon="0.13488">
        <ele>1951.13</ele>
        <time>2016-01-10T10:15:43Z</time>
      </trkpt>
      <trkpt lat="42.77438" lon="0.13488">
        <ele>1951.13</ele>
        <time>2016-01-10T10:15:44Z</time>
      </trkpt>
      <trkpt lat="42.7743" lon="0.13491">
        <ele>1947.77</ele>
        <time>2016-01-10T10:16:00Z</time>
      </trkpt>
      <trkpt lat="42.77417" lon="0.13492">
        <ele>1948.73</ele>
        <time>2016-01-10T10:16:18Z</time>
      </trkpt>
      <trkpt lat="42.77392" lon="0.13491">
        <ele>1954.02</ele>
        <time>2016-01-10T10:16:55Z</time>
      </trkpt>
      <trkpt lat="42.77369" lon="0.13504">
        <ele>1960.27</ele>
        <time>2016-01-10T10:17:34Z</time>
      </trkpt>
      <trkpt lat="42.77347" lon="0.13519">
        <ele>1966.03</ele>
        <time>2016-01-10T10:18:16Z</time>
      </trkpt>
      <trkpt lat="42.77351" lon="0.13504">
        <ele>1969.4</ele>
        <time>2016-01-10T10:18:33Z</time>
      </trkpt>
      <trkpt lat="42.77344" lon="0.13497">
        <ele>1973.24</ele>
        <time>2016-01-10T10:19:10Z</time>
      </trkpt>
      <trkpt lat="42.77331" lon="0.13502">
        <ele>1977.09</ele>
        <time>2016-01-10T10:19:45Z</time>
      </trkpt>
      <trkpt lat="42.77326" lon="0.1349">
        <ele>1982.86</ele>
        <time>2016-01-10T10:20:38Z</time>
      </trkpt>
      <trkpt lat="42.77328" lon="0.13478">
        <ele>1986.22</ele>
        <time>2016-01-10T10:20:55Z</time>
      </trkpt>
      <trkpt lat="42.77294" lon="0.13487">
        <ele>1990.07</ele>
        <time>2016-01-10T10:21:54Z</time>
      </trkpt>
      <trkpt lat="42.7728" lon="0.13499">
        <ele>1990.07</ele>
        <time>2016-01-10T10:22:17Z</time>
      </trkpt>
      <trkpt lat="42.77261" lon="0.13518">
        <ele>1993.91</ele>
        <time>2016-01-10T10:22:53Z</time>
      </trkpt>
      <trkpt lat="42.7724" lon="0.13515">
        <ele>1997.28</ele>
        <time>2016-01-10T10:23:34Z</time>
      </trkpt>
      <trkpt lat="42.77234" lon="0.13503">
        <ele>2001.12</ele>
        <time>2016-01-10T10:24:15Z</time>
      </trkpt>
      <trkpt lat="42.77213" lon="0.13506">
        <ele>2004.97</ele>
        <time>2016-01-10T10:25:35Z</time>
      </trkpt>
      <trkpt lat="42.77187" lon="0.13493">
        <ele>2009.77</ele>
        <time>2016-01-10T10:26:26Z</time>
      </trkpt>
      <trkpt lat="42.77162" lon="0.13498">
        <ele>2014.58</ele>
        <time>2016-01-10T10:27:03Z</time>
      </trkpt>
      <trkpt lat="42.77141" lon="0.13473">
        <ele>2018.91</ele>
        <time>2016-01-10T10:27:43Z</time>
      </trkpt>
      <trkpt lat="42.77111" lon="0.13456">
        <ele>2023.71</ele>
        <time>2016-01-10T10:29:07Z</time>
      </trkpt>
      <trkpt lat="42.77088" lon="0.1343">
        <ele>2027.08</ele>
        <time>2016-01-10T10:29:47Z</time>
      </trkpt>
      <trkpt lat="42.77052" lon="0.1343">
        <ele>2031.88</ele>
        <time>2016-01-10T10:30:43Z</time>
      </trkpt>
      <trkpt lat="42.77037" lon="0.13445">
        <ele>2035.73</ele>
        <time>2016-01-10T10:31:54Z</time>
      </trkpt>
      <trkpt lat="42.77035" lon="0.13432">
        <ele>2039.09</ele>
        <time>2016-01-10T10:32:10Z</time>
      </trkpt>
      <trkpt lat="42.77027" lon="0.13438">
        <ele>2042.94</ele>
        <time>2016-01-10T10:32:50Z</time>
      </trkpt>
      <trkpt lat="42.77023" lon="0.13441">
        <ele>2046.78</ele>
        <time>2016-01-10T10:33:17Z</time>
      </trkpt>
      <trkpt lat="42.77011" lon="0.13433">
        <ele>2052.55</ele>
        <time>2016-01-10T10:34:41Z</time>
      </trkpt>
      <trkpt lat="42.76997" lon="0.13448">
        <ele>2057.84</ele>
        <time>2016-01-10T10:35:11Z</time>
      </trkpt>
      <trkpt lat="42.76988" lon="0.13451">
        <ele>2061.2</ele>
        <time>2016-01-10T10:35:28Z</time>
      </trkpt>
      <trkpt lat="42.76975" lon="0.13453">
        <ele>2065.05</ele>
        <time>2016-01-10T10:35:52Z</time>
      </trkpt>
      <trkpt lat="42.76952" lon="0.13459">
        <ele>2068.41</ele>
        <time>2016-01-10T10:36:30Z</time>
      </trkpt>
      <trkpt lat="42.76946" lon="0.13463">
        <ele>2070.82</ele>
        <time>2016-01-10T10:36:52Z</time>
      </trkpt>
      <trkpt lat="42.76889" lon="0.13483">
        <ele>2074.66</ele>
        <time>2016-01-10T10:37:57Z</time>
      </trkpt>
      <trkpt lat="42.76859" lon="0.13489">
        <ele>2078.51</ele>
        <time>2016-01-10T10:38:37Z</time>
      </trkpt>
      <trkpt lat="42.76834" lon="0.13493">
        <ele>2081.87</ele>
        <time>2016-01-10T10:39:12Z</time>
      </trkpt>
      <trkpt lat="42.76811" lon="0.13503">
        <ele>2086.2</ele>
        <time>2016-01-10T10:39:52Z</time>
      </trkpt>
      <trkpt lat="42.76814" lon="0.13506">
        <ele>2086.68</ele>
        <time>2016-01-10T10:44:30Z</time>
      </trkpt>
      <trkpt lat="42.76813" lon="0.13504">
        <ele>2085.24</ele>
        <time>2016-01-10T10:45:33Z</time>
      </trkpt>
      <trkpt lat="42.76799" lon="0.13493">
        <ele>2089.08</ele>
        <time>2016-01-10T10:51:42Z</time>
      </trkpt>
      <trkpt lat="42.76779" lon="0.13481">
        <ele>2092.93</ele>
        <time>2016-01-10T10:52:15Z</time>
      </trkpt>
      <trkpt lat="42.7669" lon="0.13433">
        <ele>2095.33</ele>
        <time>2016-01-10T10:54:08Z</time>
      </trkpt>
      <trkpt lat="42.76655" lon="0.13422">
        <ele>2091.97</ele>
        <time>2016-01-10T10:55:27Z</time>
      </trkpt>
      <trkpt lat="42.76651" lon="0.13422">
        <ele>2092.93</ele>
        <time>2016-01-10T10:57:35Z</time>
      </trkpt>
      <trkpt lat="42.76646" lon="0.13419">
        <ele>2091.49</ele>
        <time>2016-01-10T10:57:57Z</time>
      </trkpt>
      <trkpt lat="42.76642" lon="0.13419">
        <ele>2091.49</ele>
        <time>2016-01-10T10:58:01Z</time>
      </trkpt>
      <trkpt lat="42.76609" lon="0.13419">
        <ele>2088.12</ele>
        <time>2016-01-10T10:58:51Z</time>
      </trkpt>
      <trkpt lat="42.76602" lon="0.13418">
        <ele>2086.68</ele>
        <time>2016-01-10T10:58:59Z</time>
      </trkpt>
      <trkpt lat="42.76593" lon="0.13414">
        <ele>2085.24</ele>
        <time>2016-01-10T10:59:06Z</time>
      </trkpt>
      <trkpt lat="42.76589" lon="0.13412">
        <ele>2084.28</ele>
        <time>2016-01-10T10:59:10Z</time>
      </trkpt>
      <trkpt lat="42.76529" lon="0.13413">
        <ele>2085.72</ele>
        <time>2016-01-10T11:02:11Z</time>
      </trkpt>
      <trkpt lat="42.76526" lon="0.13412">
        <ele>2084.28</ele>
        <time>2016-01-10T11:03:01Z</time>
      </trkpt>
      <trkpt lat="42.76501" lon="0.13418">
        <ele>2083.79</ele>
        <time>2016-01-10T11:06:58Z</time>
      </trkpt>
      <trkpt lat="42.76456" lon="0.13475">
        <ele>2085.72</ele>
        <time>2016-01-10T11:08:10Z</time>
      </trkpt>
      <trkpt lat="42.76427" lon="0.13527">
        <ele>2091</ele>
        <time>2016-01-10T11:09:09Z</time>
      </trkpt>
      <trkpt lat="42.76429" lon="0.13546">
        <ele>2094.85</ele>
        <time>2016-01-10T11:09:31Z</time>
      </trkpt>
      <trkpt lat="42.76429" lon="0.13547">
        <ele>2094.85</ele>
        <time>2016-01-10T11:09:32Z</time>
      </trkpt>
      <trkpt lat="42.76414" lon="0.13583">
        <ele>2100.14</ele>
        <time>2016-01-10T11:10:21Z</time>
      </trkpt>
      <trkpt lat="42.76419" lon="0.13601">
        <ele>2103.98</ele>
        <time>2016-01-10T11:11:00Z</time>
      </trkpt>
      <trkpt lat="42.76395" lon="0.13605">
        <ele>2107.83</ele>
        <time>2016-01-10T11:12:04Z</time>
      </trkpt>
      <trkpt lat="42.76403" lon="0.13618">
        <ele>2112.63</ele>
        <time>2016-01-10T11:12:44Z</time>
      </trkpt>
      <trkpt lat="42.76394" lon="0.13625">
        <ele>2116.48</ele>
        <time>2016-01-10T11:13:18Z</time>
      </trkpt>
      <trkpt lat="42.76387" lon="0.13633">
        <ele>2121.77</ele>
        <time>2016-01-10T11:14:07Z</time>
      </trkpt>
      <trkpt lat="42.76398" lon="0.1365">
        <ele>2127.53</ele>
        <time>2016-01-10T11:14:45Z</time>
      </trkpt>
      <trkpt lat="42.7639" lon="0.13651">
        <ele>2132.34</ele>
        <time>2016-01-10T11:15:25Z</time>
      </trkpt>
      <trkpt lat="42.76385" lon="0.13652">
        <ele>2132.34</ele>
        <time>2016-01-10T11:15:43Z</time>
      </trkpt>
      <trkpt lat="42.7639" lon="0.13663">
        <ele>2136.19</ele>
        <time>2016-01-10T11:16:06Z</time>
      </trkpt>
      <trkpt lat="42.7639" lon="0.13672">
        <ele>2140.99</ele>
        <time>2016-01-10T11:16:51Z</time>
      </trkpt>
      <trkpt lat="42.76373" lon="0.13676">
        <ele>2146.76</ele>
        <time>2016-01-10T11:17:23Z</time>
      </trkpt>
      <trkpt lat="42.7637" lon="0.13676">
        <ele>2143.4</ele>
        <time>2016-01-10T11:17:31Z</time>
      </trkpt>
      <trkpt lat="42.76376" lon="0.13693">
        <ele>2148.68</ele>
        <time>2016-01-10T11:17:59Z</time>
      </trkpt>
      <trkpt lat="42.76373" lon="0.13707">
        <ele>2154.45</ele>
        <time>2016-01-10T11:18:29Z</time>
      </trkpt>
      <trkpt lat="42.76352" lon="0.13717">
        <ele>2159.74</ele>
        <time>2016-01-10T11:19:08Z</time>
      </trkpt>
      <trkpt lat="42.76337" lon="0.13714">
        <ele>2164.55</ele>
        <time>2016-01-10T11:19:51Z</time>
      </trkpt>
      <trkpt lat="42.76335" lon="0.13731">
        <ele>2167.91</ele>
        <time>2016-01-10T11:20:14Z</time>
      </trkpt>
      <trkpt lat="42.76347" lon="0.13758">
        <ele>2171.76</ele>
        <time>2016-01-10T11:20:54Z</time>
      </trkpt>
      <trkpt lat="42.76344" lon="0.13775">
        <ele>2175.12</ele>
        <time>2016-01-10T11:21:37Z</time>
      </trkpt>
      <trkpt lat="42.76335" lon="0.13786">
        <ele>2180.41</ele>
        <time>2016-01-10T11:22:10Z</time>
      </trkpt>
      <trkpt lat="42.76323" lon="0.13793">
        <ele>2183.77</ele>
        <time>2016-01-10T11:22:27Z</time>
      </trkpt>
      <trkpt lat="42.7633" lon="0.13817">
        <ele>2189.06</ele>
        <time>2016-01-10T11:23:12Z</time>
      </trkpt>
      <trkpt lat="42.76312" lon="0.13823">
        <ele>2193.39</ele>
        <time>2016-01-10T11:23:48Z</time>
      </trkpt>
      <trkpt lat="42.76301" lon="0.13828">
        <ele>2196.75</ele>
        <time>2016-01-10T11:24:10Z</time>
      </trkpt>
      <trkpt lat="42.7628" lon="0.13835">
        <ele>2201.08</ele>
        <time>2016-01-10T11:24:51Z</time>
      </trkpt>
      <trkpt lat="42.76268" lon="0.13832">
        <ele>2205.4</ele>
        <time>2016-01-10T11:25:26Z</time>
      </trkpt>
      <trkpt lat="42.76253" lon="0.13834">
        <ele>2210.21</ele>
        <time>2016-01-10T11:26:03Z</time>
      </trkpt>
      <trkpt lat="42.76239" lon="0.13832">
        <ele>2213.57</ele>
        <time>2016-01-10T11:26:42Z</time>
      </trkpt>
      <trkpt lat="42.76251" lon="0.13852">
        <ele>2218.38</ele>
        <time>2016-01-10T11:27:20Z</time>
      </trkpt>
      <trkpt lat="42.76259" lon="0.13872">
        <ele>2223.67</ele>
        <time>2016-01-10T11:28:00Z</time>
      </trkpt>
      <trkpt lat="42.7627" lon="0.13886">
        <ele>2228.95</ele>
        <time>2016-01-10T11:28:45Z</time>
      </trkpt>
      <trkpt lat="42.76245" lon="0.13888">
        <ele>2232.8</ele>
        <time>2016-01-10T11:29:25Z</time>
      </trkpt>
      <trkpt lat="42.76228" lon="0.13892">
        <ele>2236.16</ele>
        <time>2016-01-10T11:30:05Z</time>
      </trkpt>
      <trkpt lat="42.76225" lon="0.13896">
        <ele>2236.16</ele>
        <time>2016-01-10T11:30:26Z</time>
      </trkpt>
      <trkpt lat="42.76224" lon="0.13904">
        <ele>2240.01</ele>
        <time>2016-01-10T11:30:59Z</time>
      </trkpt>
      <trkpt lat="42.76223" lon="0.13912">
        <ele>2244.33</ele>
        <time>2016-01-10T11:31:42Z</time>
      </trkpt>
      <trkpt lat="42.76205" lon="0.13905">
        <ele>2249.14</ele>
        <time>2016-01-10T11:32:23Z</time>
      </trkpt>
      <trkpt lat="42.76202" lon="0.1391">
        <ele>2252.99</ele>
        <time>2016-01-10T11:33:10Z</time>
      </trkpt>
      <trkpt lat="42.76207" lon="0.13925">
        <ele>2257.79</ele>
        <time>2016-01-10T11:33:50Z</time>
      </trkpt>
      <trkpt lat="42.76185" lon="0.1392">
        <ele>2261.16</ele>
        <time>2016-01-10T11:34:30Z</time>
      </trkpt>
      <trkpt lat="42.76174" lon="0.1392">
        <ele>2265.96</ele>
        <time>2016-01-10T11:35:06Z</time>
      </trkpt>
      <trkpt lat="42.76168" lon="0.13925">
        <ele>2269.33</ele>
        <time>2016-01-10T11:35:27Z</time>
      </trkpt>
      <trkpt lat="42.76154" lon="0.13929">
        <ele>2274.62</ele>
        <time>2016-01-10T11:36:11Z</time>
      </trkpt>
      <trkpt lat="42.76138" lon="0.13937">
        <ele>2279.42</ele>
        <time>2016-01-10T11:36:50Z</time>
      </trkpt>
      <trkpt lat="42.76119" lon="0.13941">
        <ele>2283.27</ele>
        <time>2016-01-10T11:39:30Z</time>
      </trkpt>
      <trkpt lat="42.76101" lon="0.13929">
        <ele>2287.59</ele>
        <time>2016-01-10T11:40:09Z</time>
      </trkpt>
      <trkpt lat="42.76096" lon="0.1393">
        <ele>2291.92</ele>
        <time>2016-01-10T11:40:43Z</time>
      </trkpt>
      <trkpt lat="42.76089" lon="0.13921">
        <ele>2295.28</ele>
        <time>2016-01-10T11:41:07Z</time>
      </trkpt>
      <trkpt lat="42.76074" lon="0.13927">
        <ele>2301.53</ele>
        <time>2016-01-10T11:42:08Z</time>
      </trkpt>
      <trkpt lat="42.76065" lon="0.13917">
        <ele>2308.26</ele>
        <time>2016-01-10T11:42:46Z</time>
      </trkpt>
      <trkpt lat="42.7606" lon="0.13913">
        <ele>2310.19</ele>
        <time>2016-01-10T11:43:27Z</time>
      </trkpt>
      <trkpt lat="42.76017" lon="0.13933">
        <ele>2315.47</ele>
        <time>2016-01-10T11:46:02Z</time>
      </trkpt>
      <trkpt lat="42.76003" lon="0.13943">
        <ele>2319.32</ele>
        <time>2016-01-10T11:46:43Z</time>
      </trkpt>
      <trkpt lat="42.75996" lon="0.13942">
        <ele>2322.68</ele>
        <time>2016-01-10T11:47:46Z</time>
      </trkpt>
      <trkpt lat="42.7598" lon="0.1396">
        <ele>2328.45</ele>
        <time>2016-01-10T11:48:20Z</time>
      </trkpt>
      <trkpt lat="42.7598" lon="0.13965">
        <ele>2327.01</ele>
        <time>2016-01-10T11:48:27Z</time>
      </trkpt>
      <trkpt lat="42.75944" lon="0.13963">
        <ele>2330.37</ele>
        <time>2016-01-10T11:49:42Z</time>
      </trkpt>
      <trkpt lat="42.75925" lon="0.13962">
        <ele>2334.22</ele>
        <time>2016-01-10T11:50:26Z</time>
      </trkpt>
      <trkpt lat="42.75925" lon="0.13963">
        <ele>2334.22</ele>
        <time>2016-01-10T11:50:34Z</time>
      </trkpt>
      <trkpt lat="42.75918" lon="0.1396">
        <ele>2335.18</ele>
        <time>2016-01-10T11:50:46Z</time>
      </trkpt>
      <trkpt lat="42.75903" lon="0.13962">
        <ele>2338.54</ele>
        <time>2016-01-10T11:51:28Z</time>
      </trkpt>
      <trkpt lat="42.75887" lon="0.13948">
        <ele>2341.91</ele>
        <time>2016-01-10T11:52:15Z</time>
      </trkpt>
      <trkpt lat="42.75873" lon="0.1395">
        <ele>2347.68</ele>
        <time>2016-01-10T11:52:39Z</time>
      </trkpt>
      <trkpt lat="42.75865" lon="0.1394">
        <ele>2341.91</ele>
        <time>2016-01-10T11:53:44Z</time>
      </trkpt>
      <trkpt lat="42.75866" lon="0.13941">
        <ele>2346.72</ele>
        <time>2016-01-10T11:53:45Z</time>
      </trkpt>
      <trkpt lat="42.75865" lon="0.13941">
        <ele>2351.52</ele>
        <time>2016-01-10T11:53:49Z</time>
      </trkpt>
      <trkpt lat="42.75865" lon="0.13942">
        <ele>2350.56</ele>
        <time>2016-01-10T11:53:50Z</time>
      </trkpt>
      <trkpt lat="42.75867" lon="0.13944">
        <ele>2345.75</ele>
        <time>2016-01-10T11:54:16Z</time>
      </trkpt>
      <trkpt lat="42.75866" lon="0.13944">
        <ele>2349.6</ele>
        <time>2016-01-10T11:54:18Z</time>
      </trkpt>
      <trkpt lat="42.75866" lon="0.13944">
        <ele>2354.89</ele>
        <time>2016-01-10T11:54:19Z</time>
      </trkpt>
      <trkpt lat="42.75866" lon="0.13944">
        <ele>2352.96</ele>
        <time>2016-01-10T11:54:20Z</time>
      </trkpt>
      <trkpt lat="42.75865" lon="0.13944">
        <ele>2347.68</ele>
        <time>2016-01-10T11:54:21Z</time>
      </trkpt>
      <trkpt lat="42.75865" lon="0.13945">
        <ele>2351.52</ele>
        <time>2016-01-10T11:54:22Z</time>
      </trkpt>
      <trkpt lat="42.75865" lon="0.13945">
        <ele>2354.89</ele>
        <time>2016-01-10T11:54:23Z</time>
      </trkpt>
      <trkpt lat="42.75865" lon="0.13946">
        <ele>2352.96</ele>
        <time>2016-01-10T11:54:24Z</time>
      </trkpt>
      <trkpt lat="42.75865" lon="0.13946">
        <ele>2346.72</ele>
        <time>2016-01-10T11:54:25Z</time>
      </trkpt>
      <trkpt lat="42.75865" lon="0.13946">
        <ele>2348.64</ele>
        <time>2016-01-10T11:54:26Z</time>
      </trkpt>
      <trkpt lat="42.75865" lon="0.13944">
        <ele>2351.52</ele>
        <time>2016-01-10T11:54:31Z</time>
      </trkpt>
      <trkpt lat="42.75863" lon="0.13944">
        <ele>2346.23</ele>
        <time>2016-01-10T11:54:42Z</time>
      </trkpt>
      <trkpt lat="42.75863" lon="0.13944">
        <ele>2348.64</ele>
        <time>2016-01-10T11:54:43Z</time>
      </trkpt>
      <trkpt lat="42.7586" lon="0.13944">
        <ele>2344.79</ele>
        <time>2016-01-10T11:54:48Z</time>
      </trkpt>
      <trkpt lat="42.75858" lon="0.13945">
        <ele>2348.64</ele>
        <time>2016-01-10T11:54:51Z</time>
      </trkpt>
      <trkpt lat="42.75855" lon="0.13945">
        <ele>2352.96</ele>
        <time>2016-01-10T11:54:56Z</time>
      </trkpt>
      <trkpt lat="42.75855" lon="0.13947">
        <ele>2348.16</ele>
        <time>2016-01-10T11:54:57Z</time>
      </trkpt>
      <trkpt lat="42.75855" lon="0.13947">
        <ele>2353.93</ele>
        <time>2016-01-10T11:55:01Z</time>
      </trkpt>
      <trkpt lat="42.75855" lon="0.13948">
        <ele>2353.44</ele>
        <time>2016-01-10T11:55:05Z</time>
      </trkpt>
      <trkpt lat="42.75855" lon="0.13947">
        <ele>2348.64</ele>
        <time>2016-01-10T11:55:07Z</time>
      </trkpt>
      <trkpt lat="42.75855" lon="0.13947">
        <ele>2348.64</ele>
        <time>2016-01-10T11:55:08Z</time>
      </trkpt>
      <trkpt lat="42.75855" lon="0.13946">
        <ele>2352</ele>
        <time>2016-01-10T11:55:09Z</time>
      </trkpt>
      <trkpt lat="42.75854" lon="0.13946">
        <ele>2345.27</ele>
        <time>2016-01-10T11:55:11Z</time>
      </trkpt>
      <trkpt lat="42.75854" lon="0.13946">
        <ele>2351.52</ele>
        <time>2016-01-10T11:55:12Z</time>
      </trkpt>
      <trkpt lat="42.75857" lon="0.13946">
        <ele>2348.16</ele>
        <time>2016-01-10T11:55:21Z</time>
      </trkpt>
      <trkpt lat="42.7585" lon="0.1395">
        <ele>2347.2</ele>
        <time>2016-01-10T11:56:29Z</time>
      </trkpt>
      <trkpt lat="42.75845" lon="0.1395">
        <ele>2350.56</ele>
        <time>2016-01-10T11:56:34Z</time>
      </trkpt>
      <trkpt lat="42.75837" lon="0.13947">
        <ele>2355.37</ele>
        <time>2016-01-10T11:56:45Z</time>
      </trkpt>
      <trkpt lat="42.75829" lon="0.13939">
        <ele>2356.33</ele>
        <time>2016-01-10T11:57:08Z</time>
      </trkpt>
      <trkpt lat="42.75826" lon="0.13957">
        <ele>2359.69</ele>
        <time>2016-01-10T11:57:40Z</time>
      </trkpt>
      <trkpt lat="42.75829" lon="0.13971">
        <ele>2364.02</ele>
        <time>2016-01-10T11:58:01Z</time>
      </trkpt>
      <trkpt lat="42.75834" lon="0.13987">
        <ele>2365.94</ele>
        <time>2016-01-10T11:58:27Z</time>
      </trkpt>
      <trkpt lat="42.75826" lon="0.13989">
        <ele>2362.58</ele>
        <time>2016-01-10T11:58:43Z</time>
      </trkpt>
      <trkpt lat="42.75826" lon="0.13989">
        <ele>2366.9</ele>
        <time>2016-01-10T11:58:44Z</time>
      </trkpt>
      <trkpt lat="42.7582" lon="0.1399">
        <ele>2370.75</ele>
        <time>2016-01-10T11:58:53Z</time>
      </trkpt>
      <trkpt lat="42.7582" lon="0.13989">
        <ele>2364.98</ele>
        <time>2016-01-10T11:59:09Z</time>
      </trkpt>
      <trkpt lat="42.7582" lon="0.13986">
        <ele>2370.75</ele>
        <time>2016-01-10T11:59:16Z</time>
      </trkpt>
      <trkpt lat="42.7582" lon="0.13986">
        <ele>2367.38</ele>
        <time>2016-01-10T11:59:20Z</time>
      </trkpt>
      <trkpt lat="42.7582" lon="0.13986">
        <ele>2371.23</ele>
        <time>2016-01-10T11:59:23Z</time>
      </trkpt>
      <trkpt lat="42.75808" lon="0.13987">
        <ele>2375.07</ele>
        <time>2016-01-10T11:59:50Z</time>
      </trkpt>
      <trkpt lat="42.75808" lon="0.13987">
        <ele>2375.07</ele>
        <time>2016-01-10T11:59:51Z</time>
      </trkpt>
      <trkpt lat="42.75792" lon="0.13989">
        <ele>2381.8</ele>
        <time>2016-01-10T12:00:12Z</time>
      </trkpt>
      <trkpt lat="42.75781" lon="0.13987">
        <ele>2385.17</ele>
        <time>2016-01-10T12:00:27Z</time>
      </trkpt>
      <trkpt lat="42.75782" lon="0.13984">
        <ele>2383.25</ele>
        <time>2016-01-10T12:00:50Z</time>
      </trkpt>
      <trkpt lat="42.75778" lon="0.13981">
        <ele>2382.28</ele>
        <time>2016-01-10T12:01:35Z</time>
      </trkpt>
      <trkpt lat="42.75778" lon="0.13983">
        <ele>2386.13</ele>
        <time>2016-01-10T12:01:51Z</time>
      </trkpt>
      <trkpt lat="42.75777" lon="0.13982">
        <ele>2387.57</ele>
        <time>2016-01-10T12:02:03Z</time>
      </trkpt>
      <trkpt lat="42.75768" lon="0.13979">
        <ele>2383.25</ele>
        <time>2016-01-10T12:02:47Z</time>
      </trkpt>
      <trkpt lat="42.7576" lon="0.13983">
        <ele>2388.05</ele>
        <time>2016-01-10T12:03:04Z</time>
      </trkpt>
      <trkpt lat="42.75757" lon="0.13986">
        <ele>2391.9</ele>
        <time>2016-01-10T12:03:15Z</time>
      </trkpt>
      <trkpt lat="42.75757" lon="0.13987">
        <ele>2389.97</ele>
        <time>2016-01-10T12:03:16Z</time>
      </trkpt>
      <trkpt lat="42.75757" lon="0.1399">
        <ele>2391.42</ele>
        <time>2016-01-10T12:03:23Z</time>
      </trkpt>
      <trkpt lat="42.75757" lon="0.13996">
        <ele>2392.86</ele>
        <time>2016-01-10T12:03:31Z</time>
      </trkpt>
      <trkpt lat="42.75757" lon="0.13997">
        <ele>2388.53</ele>
        <time>2016-01-10T12:03:33Z</time>
      </trkpt>
      <trkpt lat="42.75757" lon="0.13998">
        <ele>2393.82</ele>
        <time>2016-01-10T12:03:34Z</time>
      </trkpt>
      <trkpt lat="42.75755" lon="0.14002">
        <ele>2397.18</ele>
        <time>2016-01-10T12:03:43Z</time>
      </trkpt>
      <trkpt lat="42.75755" lon="0.14002">
        <ele>2396.7</ele>
        <time>2016-01-10T12:03:44Z</time>
      </trkpt>
      <trkpt lat="42.75755" lon="0.14002">
        <ele>2392.86</ele>
        <time>2016-01-10T12:03:45Z</time>
      </trkpt>
      <trkpt lat="42.75755" lon="0.14002">
        <ele>2392.86</ele>
        <time>2016-01-10T12:03:46Z</time>
      </trkpt>
      <trkpt lat="42.75753" lon="0.1401">
        <ele>2396.22</ele>
        <time>2016-01-10T12:04:01Z</time>
      </trkpt>
      <trkpt lat="42.75752" lon="0.14014">
        <ele>2395.26</ele>
        <time>2016-01-10T12:04:09Z</time>
      </trkpt>
      <trkpt lat="42.7575" lon="0.14018">
        <ele>2401.51</ele>
        <time>2016-01-10T12:04:18Z</time>
      </trkpt>
      <trkpt lat="42.7575" lon="0.14019">
        <ele>2405.84</ele>
        <time>2016-01-10T12:04:19Z</time>
      </trkpt>
      <trkpt lat="42.7575" lon="0.1402">
        <ele>2404.39</ele>
        <time>2016-01-10T12:04:20Z</time>
      </trkpt>
      <trkpt lat="42.7575" lon="0.1402">
        <ele>2400.07</ele>
        <time>2016-01-10T12:04:21Z</time>
      </trkpt>
      <trkpt lat="42.75748" lon="0.14024">
        <ele>2399.11</ele>
        <time>2016-01-10T12:04:29Z</time>
      </trkpt>
      <trkpt lat="42.75748" lon="0.14026">
        <ele>2394.3</ele>
        <time>2016-01-10T12:04:32Z</time>
      </trkpt>
      <trkpt lat="42.75748" lon="0.14026">
        <ele>2395.74</ele>
        <time>2016-01-10T12:04:33Z</time>
      </trkpt>
      <trkpt lat="42.75747" lon="0.14029">
        <ele>2401.51</ele>
        <time>2016-01-10T12:04:43Z</time>
      </trkpt>
      <trkpt lat="42.75747" lon="0.14031">
        <ele>2396.22</ele>
        <time>2016-01-10T12:04:50Z</time>
      </trkpt>
      <trkpt lat="42.75747" lon="0.14035">
        <ele>2401.99</ele>
        <time>2016-01-10T12:05:00Z</time>
      </trkpt>
      <trkpt lat="42.75747" lon="0.14036">
        <ele>2401.99</ele>
        <time>2016-01-10T12:05:01Z</time>
      </trkpt>
      <trkpt lat="42.75746" lon="0.14039">
        <ele>2400.07</ele>
        <time>2016-01-10T12:05:07Z</time>
      </trkpt>
      <trkpt lat="42.75746" lon="0.14042">
        <ele>2401.03</ele>
        <time>2016-01-10T12:05:16Z</time>
      </trkpt>
      <trkpt lat="42.75735" lon="0.14048">
        <ele>2404.88</ele>
        <time>2016-01-10T12:06:11Z</time>
      </trkpt>
      <trkpt lat="42.75722" lon="0.14043">
        <ele>2411.12</ele>
        <time>2016-01-10T12:06:40Z</time>
      </trkpt>
      <trkpt lat="42.75714" lon="0.14056">
        <ele>2414.97</ele>
        <time>2016-01-10T12:07:20Z</time>
      </trkpt>
      <trkpt lat="42.75713" lon="0.14056">
        <ele>2418.81</ele>
        <time>2016-01-10T12:07:22Z</time>
      </trkpt>
      <trkpt lat="42.75712" lon="0.14057">
        <ele>2425.54</ele>
        <time>2016-01-10T12:07:26Z</time>
      </trkpt>
      <trkpt lat="42.75712" lon="0.14058">
        <ele>2425.54</ele>
        <time>2016-01-10T12:07:27Z</time>
      </trkpt>
      <trkpt lat="42.75708" lon="0.1406">
        <ele>2419.3</ele>
        <time>2016-01-10T12:07:34Z</time>
      </trkpt>
      <trkpt lat="42.75708" lon="0.1406">
        <ele>2419.3</ele>
        <time>2016-01-10T12:07:35Z</time>
      </trkpt>
      <trkpt lat="42.75696" lon="0.14066">
        <ele>2412.57</ele>
        <time>2016-01-10T12:08:08Z</time>
      </trkpt>
      <trkpt lat="42.75695" lon="0.14067">
        <ele>2413.05</ele>
        <time>2016-01-10T12:08:09Z</time>
      </trkpt>
      <trkpt lat="42.75692" lon="0.14066">
        <ele>2415.93</ele>
        <time>2016-01-10T12:08:14Z</time>
      </trkpt>
      <trkpt lat="42.75681" lon="0.14076">
        <ele>2414.49</ele>
        <time>2016-01-10T12:08:41Z</time>
      </trkpt>
      <trkpt lat="42.7566" lon="0.141">
        <ele>2416.41</ele>
        <time>2016-01-10T12:09:50Z</time>
      </trkpt>
      <trkpt lat="42.75651" lon="0.14102">
        <ele>2420.74</ele>
        <time>2016-01-10T12:10:06Z</time>
      </trkpt>
      <trkpt lat="42.75649" lon="0.14103">
        <ele>2420.74</ele>
        <time>2016-01-10T12:10:16Z</time>
      </trkpt>
      <trkpt lat="42.75619" lon="0.14103">
        <ele>2425.54</ele>
        <time>2016-01-10T12:11:16Z</time>
      </trkpt>
      <trkpt lat="42.75611" lon="0.14108">
        <ele>2428.91</ele>
        <time>2016-01-10T12:11:40Z</time>
      </trkpt>
      <trkpt lat="42.75605" lon="0.14116">
        <ele>2432.27</ele>
        <time>2016-01-10T12:11:55Z</time>
      </trkpt>
      <trkpt lat="42.75601" lon="0.14121">
        <ele>2426.99</ele>
        <time>2016-01-10T12:12:11Z</time>
      </trkpt>
      <trkpt lat="42.75599" lon="0.14122">
        <ele>2426.99</ele>
        <time>2016-01-10T12:12:29Z</time>
      </trkpt>
      <trkpt lat="42.75594" lon="0.14129">
        <ele>2430.35</ele>
        <time>2016-01-10T12:12:36Z</time>
      </trkpt>
      <trkpt lat="42.75592" lon="0.14136">
        <ele>2433.71</ele>
        <time>2016-01-10T12:12:42Z</time>
      </trkpt>
      <trkpt lat="42.75586" lon="0.14148">
        <ele>2433.71</ele>
        <time>2016-01-10T12:13:02Z</time>
      </trkpt>
      <trkpt lat="42.75547" lon="0.14204">
        <ele>2439.48</ele>
        <time>2016-01-10T12:14:55Z</time>
      </trkpt>
      <trkpt lat="42.75536" lon="0.14204">
        <ele>2439</ele>
        <time>2016-01-10T12:15:18Z</time>
      </trkpt>
      <trkpt lat="42.75534" lon="0.14202">
        <ele>2442.85</ele>
        <time>2016-01-10T12:15:46Z</time>
      </trkpt>
      <trkpt lat="42.75535" lon="0.14199">
        <ele>2438.04</ele>
        <time>2016-01-10T12:16:35Z</time>
      </trkpt>
      <trkpt lat="42.75543" lon="0.14171">
        <ele>2439</ele>
        <time>2016-01-10T12:17:16Z</time>
      </trkpt>
      <trkpt lat="42.75559" lon="0.14161">
        <ele>2433.71</ele>
        <time>2016-01-10T12:53:01Z</time>
      </trkpt>
      <trkpt lat="42.7558" lon="0.14135">
        <ele>2429.39</ele>
        <time>2016-01-10T12:53:09Z</time>
      </trkpt>
      <trkpt lat="42.75587" lon="0.14127">
        <ele>2429.87</ele>
        <time>2016-01-10T12:53:15Z</time>
      </trkpt>
      <trkpt lat="42.7559" lon="0.14124">
        <ele>2437.08</ele>
        <time>2016-01-10T12:53:17Z</time>
      </trkpt>
      <trkpt lat="42.75592" lon="0.14123">
        <ele>2437.08</ele>
        <time>2016-01-10T12:53:18Z</time>
      </trkpt>
      <trkpt lat="42.75595" lon="0.14121">
        <ele>2432.75</ele>
        <time>2016-01-10T12:53:20Z</time>
      </trkpt>
      <trkpt lat="42.75605" lon="0.14113">
        <ele>2428.43</ele>
        <time>2016-01-10T12:53:25Z</time>
      </trkpt>
      <trkpt lat="42.75611" lon="0.14111">
        <ele>2423.14</ele>
        <time>2016-01-10T12:53:27Z</time>
      </trkpt>
      <trkpt lat="42.75613" lon="0.14111">
        <ele>2425.06</ele>
        <time>2016-01-10T12:53:28Z</time>
      </trkpt>
      <trkpt lat="42.75619" lon="0.1411">
        <ele>2417.37</ele>
        <time>2016-01-10T12:53:31Z</time>
      </trkpt>
      <trkpt lat="42.75623" lon="0.14111">
        <ele>2421.22</ele>
        <time>2016-01-10T12:53:33Z</time>
      </trkpt>
      <trkpt lat="42.75624" lon="0.14111">
        <ele>2416.89</ele>
        <time>2016-01-10T12:53:35Z</time>
      </trkpt>
      <trkpt lat="42.75624" lon="0.14111">
        <ele>2416.89</ele>
        <time>2016-01-10T12:53:36Z</time>
      </trkpt>
      <trkpt lat="42.75643" lon="0.14104">
        <ele>2420.26</ele>
        <time>2016-01-10T12:53:47Z</time>
      </trkpt>
      <trkpt lat="42.7566" lon="0.14086">
        <ele>2420.74</ele>
        <time>2016-01-10T12:54:43Z</time>
      </trkpt>
      <trkpt lat="42.75659" lon="0.14084">
        <ele>2416.41</ele>
        <time>2016-01-10T12:55:10Z</time>
      </trkpt>
      <trkpt lat="42.7566" lon="0.1408">
        <ele>2416.41</ele>
        <time>2016-01-10T12:55:34Z</time>
      </trkpt>
      <trkpt lat="42.75671" lon="0.14061">
        <ele>2412.57</ele>
        <time>2016-01-10T12:55:42Z</time>
      </trkpt>
      <trkpt lat="42.75674" lon="0.14059">
        <ele>2412.57</ele>
        <time>2016-01-10T12:55:43Z</time>
      </trkpt>
      <trkpt lat="42.75697" lon="0.1405">
        <ele>2408.72</ele>
        <time>2016-01-10T12:55:54Z</time>
      </trkpt>
      <trkpt lat="42.75701" lon="0.14049">
        <ele>2407.76</ele>
        <time>2016-01-10T12:55:56Z</time>
      </trkpt>
      <trkpt lat="42.75713" lon="0.14049">
        <ele>2411.12</ele>
        <time>2016-01-10T12:56:02Z</time>
      </trkpt>
      <trkpt lat="42.75728" lon="0.14045">
        <ele>2404.39</ele>
        <time>2016-01-10T12:56:07Z</time>
      </trkpt>
      <trkpt lat="42.75732" lon="0.14047">
        <ele>2404.39</ele>
        <time>2016-01-10T12:56:08Z</time>
      </trkpt>
      <trkpt lat="42.75737" lon="0.14048">
        <ele>2400.55</ele>
        <time>2016-01-10T12:56:10Z</time>
      </trkpt>
      <trkpt lat="42.75758" lon="0.14046">
        <ele>2400.07</ele>
        <time>2016-01-10T12:56:25Z</time>
      </trkpt>
      <trkpt lat="42.7575" lon="0.14032">
        <ele>2402.47</ele>
        <time>2016-01-10T12:56:32Z</time>
      </trkpt>
      <trkpt lat="42.7575" lon="0.14032">
        <ele>2400.55</ele>
        <time>2016-01-10T12:56:37Z</time>
      </trkpt>
      <trkpt lat="42.75759" lon="0.14017">
        <ele>2397.18</ele>
        <time>2016-01-10T12:56:42Z</time>
      </trkpt>
      <trkpt lat="42.75763" lon="0.14005">
        <ele>2398.63</ele>
        <time>2016-01-10T12:56:46Z</time>
      </trkpt>
      <trkpt lat="42.75778" lon="0.14002">
        <ele>2393.34</ele>
        <time>2016-01-10T12:56:52Z</time>
      </trkpt>
      <trkpt lat="42.75779" lon="0.14004">
        <ele>2390.46</ele>
        <time>2016-01-10T12:57:03Z</time>
      </trkpt>
      <trkpt lat="42.7579" lon="0.1399">
        <ele>2385.65</ele>
        <time>2016-01-10T12:57:10Z</time>
      </trkpt>
      <trkpt lat="42.75792" lon="0.13984">
        <ele>2387.09</ele>
        <time>2016-01-10T12:57:18Z</time>
      </trkpt>
      <trkpt lat="42.75794" lon="0.13983">
        <ele>2383.25</ele>
        <time>2016-01-10T12:57:29Z</time>
      </trkpt>
      <trkpt lat="42.75796" lon="0.13984">
        <ele>2382.28</ele>
        <time>2016-01-10T12:57:37Z</time>
      </trkpt>
      <trkpt lat="42.75813" lon="0.1399">
        <ele>2378.92</ele>
        <time>2016-01-10T12:57:54Z</time>
      </trkpt>
      <trkpt lat="42.75818" lon="0.13983">
        <ele>2373.63</ele>
        <time>2016-01-10T12:57:58Z</time>
      </trkpt>
      <trkpt lat="42.75822" lon="0.13978">
        <ele>2370.27</ele>
        <time>2016-01-10T12:58:00Z</time>
      </trkpt>
      <trkpt lat="42.75828" lon="0.13974">
        <ele>2367.38</ele>
        <time>2016-01-10T12:58:03Z</time>
      </trkpt>
      <trkpt lat="42.75829" lon="0.13974">
        <ele>2367.38</ele>
        <time>2016-01-10T12:58:04Z</time>
      </trkpt>
      <trkpt lat="42.75829" lon="0.13973">
        <ele>2366.9</ele>
        <time>2016-01-10T12:58:40Z</time>
      </trkpt>
      <trkpt lat="42.75836" lon="0.13964">
        <ele>2361.62</ele>
        <time>2016-01-10T12:58:45Z</time>
      </trkpt>
      <trkpt lat="42.75843" lon="0.13957">
        <ele>2357.77</ele>
        <time>2016-01-10T12:58:47Z</time>
      </trkpt>
      <trkpt lat="42.75853" lon="0.13956">
        <ele>2354.41</ele>
        <time>2016-01-10T12:58:49Z</time>
      </trkpt>
      <trkpt lat="42.75866" lon="0.13957">
        <ele>2351.04</ele>
        <time>2016-01-10T12:58:52Z</time>
      </trkpt>
      <trkpt lat="42.7587" lon="0.13959">
        <ele>2351.04</ele>
        <time>2016-01-10T12:58:53Z</time>
      </trkpt>
      <trkpt lat="42.75879" lon="0.13959">
        <ele>2347.68</ele>
        <time>2016-01-10T12:58:56Z</time>
      </trkpt>
      <trkpt lat="42.75888" lon="0.13951">
        <ele>2342.87</ele>
        <time>2016-01-10T12:58:59Z</time>
      </trkpt>
      <trkpt lat="42.75896" lon="0.13947">
        <ele>2339.02</ele>
        <time>2016-01-10T12:59:01Z</time>
      </trkpt>
      <trkpt lat="42.75925" lon="0.13953">
        <ele>2335.66</ele>
        <time>2016-01-10T12:59:17Z</time>
      </trkpt>
      <trkpt lat="42.75937" lon="0.13954">
        <ele>2331.33</ele>
        <time>2016-01-10T12:59:46Z</time>
      </trkpt>
      <trkpt lat="42.75944" lon="0.13956">
        <ele>2329.41</ele>
        <time>2016-01-10T12:59:48Z</time>
      </trkpt>
      <trkpt lat="42.75966" lon="0.13954">
        <ele>2325.57</ele>
        <time>2016-01-10T12:59:52Z</time>
      </trkpt>
      <trkpt lat="42.75976" lon="0.1395">
        <ele>2325.57</ele>
        <time>2016-01-10T12:59:54Z</time>
      </trkpt>
      <trkpt lat="42.75997" lon="0.13939">
        <ele>2322.2</ele>
        <time>2016-01-10T13:00:08Z</time>
      </trkpt>
      <trkpt lat="42.75998" lon="0.1394">
        <ele>2322.2</ele>
        <time>2016-01-10T13:00:15Z</time>
      </trkpt>
      <trkpt lat="42.76008" lon="0.13932">
        <ele>2319.32</ele>
        <time>2016-01-10T13:00:20Z</time>
      </trkpt>
      <trkpt lat="42.76021" lon="0.13928">
        <ele>2315.95</ele>
        <time>2016-01-10T13:00:28Z</time>
      </trkpt>
      <trkpt lat="42.76028" lon="0.13926">
        <ele>2314.03</ele>
        <time>2016-01-10T13:00:31Z</time>
      </trkpt>
      <trkpt lat="42.76049" lon="0.13914">
        <ele>2310.67</ele>
        <time>2016-01-10T13:00:47Z</time>
      </trkpt>
      <trkpt lat="42.76053" lon="0.13912">
        <ele>2310.67</ele>
        <time>2016-01-10T13:01:20Z</time>
      </trkpt>
      <trkpt lat="42.76069" lon="0.13907">
        <ele>2305.86</ele>
        <time>2016-01-10T13:02:29Z</time>
      </trkpt>
      <trkpt lat="42.76074" lon="0.1391">
        <ele>2303.46</ele>
        <time>2016-01-10T13:02:33Z</time>
      </trkpt>
      <trkpt lat="42.76076" lon="0.13919">
        <ele>2299.61</ele>
        <time>2016-01-10T13:02:37Z</time>
      </trkpt>
      <trkpt lat="42.76077" lon="0.13923">
        <ele>2299.61</ele>
        <time>2016-01-10T13:02:38Z</time>
      </trkpt>
      <trkpt lat="42.76083" lon="0.13927">
        <ele>2296.25</ele>
        <time>2016-01-10T13:02:41Z</time>
      </trkpt>
      <trkpt lat="42.76086" lon="0.13929">
        <ele>2296.25</ele>
        <time>2016-01-10T13:02:42Z</time>
      </trkpt>
      <trkpt lat="42.76091" lon="0.13931">
        <ele>2295.77</ele>
        <time>2016-01-10T13:02:46Z</time>
      </trkpt>
      <trkpt lat="42.76098" lon="0.13926">
        <ele>2291.44</ele>
        <time>2016-01-10T13:02:50Z</time>
      </trkpt>
      <trkpt lat="42.761" lon="0.13925">
        <ele>2291.44</ele>
        <time>2016-01-10T13:02:51Z</time>
      </trkpt>
      <trkpt lat="42.76105" lon="0.13911">
        <ele>2287.59</ele>
        <time>2016-01-10T13:02:55Z</time>
      </trkpt>
      <trkpt lat="42.7611" lon="0.13908">
        <ele>2286.15</ele>
        <time>2016-01-10T13:02:57Z</time>
      </trkpt>
      <trkpt lat="42.76112" lon="0.13906">
        <ele>2278.46</ele>
        <time>2016-01-10T13:02:58Z</time>
      </trkpt>
      <trkpt lat="42.76127" lon="0.13915">
        <ele>2279.42</ele>
        <time>2016-01-10T13:03:48Z</time>
      </trkpt>
      <trkpt lat="42.76133" lon="0.13908">
        <ele>2274.62</ele>
        <time>2016-01-10T13:03:51Z</time>
      </trkpt>
      <trkpt lat="42.76139" lon="0.13897">
        <ele>2270.29</ele>
        <time>2016-01-10T13:03:54Z</time>
      </trkpt>
      <trkpt lat="42.76147" lon="0.13893">
        <ele>2266.45</ele>
        <time>2016-01-10T13:03:56Z</time>
      </trkpt>
      <trkpt lat="42.76149" lon="0.13889">
        <ele>2266.45</ele>
        <time>2016-01-10T13:03:57Z</time>
      </trkpt>
      <trkpt lat="42.76155" lon="0.1388">
        <ele>2262.6</ele>
        <time>2016-01-10T13:03:59Z</time>
      </trkpt>
      <trkpt lat="42.76165" lon="0.13871">
        <ele>2257.31</ele>
        <time>2016-01-10T13:04:02Z</time>
      </trkpt>
      <trkpt lat="42.76173" lon="0.13866">
        <ele>2253.95</ele>
        <time>2016-01-10T13:04:04Z</time>
      </trkpt>
      <trkpt lat="42.76177" lon="0.13867">
        <ele>2250.58</ele>
        <time>2016-01-10T13:04:05Z</time>
      </trkpt>
      <trkpt lat="42.76181" lon="0.13866">
        <ele>2252.03</ele>
        <time>2016-01-10T13:04:06Z</time>
      </trkpt>
      <trkpt lat="42.76193" lon="0.13862">
        <ele>2244.33</ele>
        <time>2016-01-10T13:04:09Z</time>
      </trkpt>
      <trkpt lat="42.76197" lon="0.13863">
        <ele>2247.7</ele>
        <time>2016-01-10T13:04:11Z</time>
      </trkpt>
      <trkpt lat="42.76202" lon="0.13864">
        <ele>2242.89</ele>
        <time>2016-01-10T13:04:13Z</time>
      </trkpt>
      <trkpt lat="42.76217" lon="0.13871">
        <ele>2238.57</ele>
        <time>2016-01-10T13:05:03Z</time>
      </trkpt>
      <trkpt lat="42.76229" lon="0.13865">
        <ele>2232.8</ele>
        <time>2016-01-10T13:05:09Z</time>
      </trkpt>
      <trkpt lat="42.76242" lon="0.13871">
        <ele>2228.95</ele>
        <time>2016-01-10T13:05:14Z</time>
      </trkpt>
      <trkpt lat="42.76243" lon="0.13872">
        <ele>2228.95</ele>
        <time>2016-01-10T13:05:15Z</time>
      </trkpt>
      <trkpt lat="42.76253" lon="0.13865">
        <ele>2224.63</ele>
        <time>2016-01-10T13:05:20Z</time>
      </trkpt>
      <trkpt lat="42.76262" lon="0.13865">
        <ele>2221.74</ele>
        <time>2016-01-10T13:05:23Z</time>
      </trkpt>
      <trkpt lat="42.76272" lon="0.13863">
        <ele>2218.38</ele>
        <time>2016-01-10T13:05:26Z</time>
      </trkpt>
      <trkpt lat="42.76277" lon="0.13865">
        <ele>2218.86</ele>
        <time>2016-01-10T13:05:43Z</time>
      </trkpt>
      <trkpt lat="42.76277" lon="0.13864">
        <ele>2219.82</ele>
        <time>2016-01-10T13:06:28Z</time>
      </trkpt>
      <trkpt lat="42.76295" lon="0.13868">
        <ele>2213.57</ele>
        <time>2016-01-10T13:07:24Z</time>
      </trkpt>
      <trkpt lat="42.76306" lon="0.13874">
        <ele>2209.25</ele>
        <time>2016-01-10T13:07:29Z</time>
      </trkpt>
      <trkpt lat="42.7631" lon="0.13875">
        <ele>2209.25</ele>
        <time>2016-01-10T13:07:30Z</time>
      </trkpt>
      <trkpt lat="42.76323" lon="0.13865">
        <ele>2205.88</ele>
        <time>2016-01-10T13:07:35Z</time>
      </trkpt>
      <trkpt lat="42.76331" lon="0.1385">
        <ele>2200.59</ele>
        <time>2016-01-10T13:07:41Z</time>
      </trkpt>
      <trkpt lat="42.76335" lon="0.13837">
        <ele>2196.75</ele>
        <time>2016-01-10T13:07:45Z</time>
      </trkpt>
      <trkpt lat="42.76339" lon="0.13821">
        <ele>2191.46</ele>
        <time>2016-01-10T13:07:54Z</time>
      </trkpt>
      <trkpt lat="42.76347" lon="0.1381">
        <ele>2187.14</ele>
        <time>2016-01-10T13:07:57Z</time>
      </trkpt>
      <trkpt lat="42.76348" lon="0.13805">
        <ele>2186.18</ele>
        <time>2016-01-10T13:08:12Z</time>
      </trkpt>
      <trkpt lat="42.76354" lon="0.13795">
        <ele>2184.25</ele>
        <time>2016-01-10T13:08:18Z</time>
      </trkpt>
      <trkpt lat="42.76363" lon="0.13787">
        <ele>2179.93</ele>
        <time>2016-01-10T13:08:24Z</time>
      </trkpt>
      <trkpt lat="42.76365" lon="0.13786">
        <ele>2179.93</ele>
        <time>2016-01-10T13:08:25Z</time>
      </trkpt>
      <trkpt lat="42.76379" lon="0.1378">
        <ele>2176.56</ele>
        <time>2016-01-10T13:08:31Z</time>
      </trkpt>
      <trkpt lat="42.76399" lon="0.13761">
        <ele>2170.31</ele>
        <time>2016-01-10T13:08:39Z</time>
      </trkpt>
      <trkpt lat="42.76407" lon="0.13756">
        <ele>2167.91</ele>
        <time>2016-01-10T13:09:57Z</time>
      </trkpt>
      <trkpt lat="42.7641" lon="0.13754">
        <ele>2168.87</ele>
        <time>2016-01-10T13:10:50Z</time>
      </trkpt>
      <trkpt lat="42.76396" lon="0.1373">
        <ele>2163.1</ele>
        <time>2016-01-10T13:10:57Z</time>
      </trkpt>
      <trkpt lat="42.7639" lon="0.13727">
        <ele>2163.1</ele>
        <time>2016-01-10T13:11:12Z</time>
      </trkpt>
      <trkpt lat="42.76377" lon="0.1371">
        <ele>2159.26</ele>
        <time>2016-01-10T13:13:08Z</time>
      </trkpt>
      <trkpt lat="42.7637" lon="0.13705">
        <ele>2157.82</ele>
        <time>2016-01-10T13:13:10Z</time>
      </trkpt>
      <trkpt lat="42.76373" lon="0.13686">
        <ele>2151.09</ele>
        <time>2016-01-10T13:13:17Z</time>
      </trkpt>
      <trkpt lat="42.76372" lon="0.13683">
        <ele>2151.09</ele>
        <time>2016-01-10T13:13:18Z</time>
      </trkpt>
      <trkpt lat="42.76375" lon="0.13679">
        <ele>2147.72</ele>
        <time>2016-01-10T13:13:21Z</time>
      </trkpt>
      <trkpt lat="42.76378" lon="0.1368">
        <ele>2147.72</ele>
        <time>2016-01-10T13:13:22Z</time>
      </trkpt>
      <trkpt lat="42.7638" lon="0.13663">
        <ele>2144.36</ele>
        <time>2016-01-10T13:13:30Z</time>
      </trkpt>
      <trkpt lat="42.76386" lon="0.13667">
        <ele>2141.95</ele>
        <time>2016-01-10T13:13:50Z</time>
      </trkpt>
      <trkpt lat="42.76386" lon="0.13662">
        <ele>2141.47</ele>
        <time>2016-01-10T13:14:19Z</time>
      </trkpt>
      <trkpt lat="42.76387" lon="0.13642">
        <ele>2135.71</ele>
        <time>2016-01-10T13:14:26Z</time>
      </trkpt>
      <trkpt lat="42.7639" lon="0.13641">
        <ele>2132.34</ele>
        <time>2016-01-10T13:14:28Z</time>
      </trkpt>
      <trkpt lat="42.76393" lon="0.13643">
        <ele>2132.34</ele>
        <time>2016-01-10T13:14:29Z</time>
      </trkpt>
      <trkpt lat="42.76394" lon="0.1364">
        <ele>2130.42</ele>
        <time>2016-01-10T13:14:32Z</time>
      </trkpt>
      <trkpt lat="42.76386" lon="0.13621">
        <ele>2126.09</ele>
        <time>2016-01-10T13:14:46Z</time>
      </trkpt>
      <trkpt lat="42.76389" lon="0.13615">
        <ele>2122.73</ele>
        <time>2016-01-10T13:14:48Z</time>
      </trkpt>
      <trkpt lat="42.76389" lon="0.13609">
        <ele>2118.4</ele>
        <time>2016-01-10T13:14:50Z</time>
      </trkpt>
      <trkpt lat="42.7639" lon="0.136">
        <ele>2113.6</ele>
        <time>2016-01-10T13:14:52Z</time>
      </trkpt>
      <trkpt lat="42.76398" lon="0.1359">
        <ele>2110.23</ele>
        <time>2016-01-10T13:14:59Z</time>
      </trkpt>
      <trkpt lat="42.764" lon="0.13582">
        <ele>2106.87</ele>
        <time>2016-01-10T13:15:01Z</time>
      </trkpt>
      <trkpt lat="42.76417" lon="0.13572">
        <ele>2102.54</ele>
        <time>2016-01-10T13:15:07Z</time>
      </trkpt>
      <trkpt lat="42.76418" lon="0.13573">
        <ele>2102.54</ele>
        <time>2016-01-10T13:15:09Z</time>
      </trkpt>
      <trkpt lat="42.76415" lon="0.1357">
        <ele>2101.1</ele>
        <time>2016-01-10T13:17:10Z</time>
      </trkpt>
      <trkpt lat="42.76423" lon="0.13524">
        <ele>2094.85</ele>
        <time>2016-01-10T13:17:17Z</time>
      </trkpt>
      <trkpt lat="42.76426" lon="0.13514">
        <ele>2091.49</ele>
        <time>2016-01-10T13:17:18Z</time>
      </trkpt>
      <trkpt lat="42.76439" lon="0.13488">
        <ele>2087.16</ele>
        <time>2016-01-10T13:17:21Z</time>
      </trkpt>
      <trkpt lat="42.76462" lon="0.13454">
        <ele>2091</ele>
        <time>2016-01-10T13:17:28Z</time>
      </trkpt>
      <trkpt lat="42.76507" lon="0.1341">
        <ele>2088.6</ele>
        <time>2016-01-10T13:17:54Z</time>
      </trkpt>
      <trkpt lat="42.76557" lon="0.13413">
        <ele>2085.24</ele>
        <time>2016-01-10T13:18:44Z</time>
      </trkpt>
      <trkpt lat="42.76615" lon="0.1342">
        <ele>2089.56</ele>
        <time>2016-01-10T13:20:47Z</time>
      </trkpt>
      <trkpt lat="42.76631" lon="0.13418">
        <ele>2091.97</ele>
        <time>2016-01-10T13:21:51Z</time>
      </trkpt>
      <trkpt lat="42.76695" lon="0.13435">
        <ele>2094.85</ele>
        <time>2016-01-10T13:23:54Z</time>
      </trkpt>
      <trkpt lat="42.76713" lon="0.13443">
        <ele>2093.41</ele>
        <time>2016-01-10T13:24:14Z</time>
      </trkpt>
      <trkpt lat="42.76768" lon="0.13472">
        <ele>2091.49</ele>
        <time>2016-01-10T13:25:08Z</time>
      </trkpt>
      <trkpt lat="42.76772" lon="0.13472">
        <ele>2093.89</ele>
        <time>2016-01-10T13:28:03Z</time>
      </trkpt>
      <trkpt lat="42.7678" lon="0.13474">
        <ele>2092.93</ele>
        <time>2016-01-10T13:28:26Z</time>
      </trkpt>
      <trkpt lat="42.76823" lon="0.13482">
        <ele>2088.6</ele>
        <time>2016-01-10T13:28:40Z</time>
      </trkpt>
      <trkpt lat="42.76854" lon="0.13483">
        <ele>2081.39</ele>
        <time>2016-01-10T13:28:46Z</time>
      </trkpt>
      <trkpt lat="42.76876" lon="0.13481">
        <ele>2079.47</ele>
        <time>2016-01-10T13:28:49Z</time>
      </trkpt>
      <trkpt lat="42.76883" lon="0.1348">
        <ele>2074.18</ele>
        <time>2016-01-10T13:28:50Z</time>
      </trkpt>
      <trkpt lat="42.7689" lon="0.13478">
        <ele>2074.66</ele>
        <time>2016-01-10T13:28:51Z</time>
      </trkpt>
      <trkpt lat="42.7691" lon="0.13471">
        <ele>2070.34</ele>
        <time>2016-01-10T13:28:54Z</time>
      </trkpt>
      <trkpt lat="42.76929" lon="0.13463">
        <ele>2067.93</ele>
        <time>2016-01-10T13:28:57Z</time>
      </trkpt>
      <trkpt lat="42.76945" lon="0.13461">
        <ele>2069.38</ele>
        <time>2016-01-10T13:29:00Z</time>
      </trkpt>
      <trkpt lat="42.76983" lon="0.13442">
        <ele>2065.53</ele>
        <time>2016-01-10T13:29:14Z</time>
      </trkpt>
      <trkpt lat="42.76988" lon="0.13433">
        <ele>2064.57</ele>
        <time>2016-01-10T13:29:40Z</time>
      </trkpt>
      <trkpt lat="42.76992" lon="0.13426">
        <ele>2065.53</ele>
        <time>2016-01-10T13:29:59Z</time>
      </trkpt>
      <trkpt lat="42.76991" lon="0.13437">
        <ele>2062.17</ele>
        <time>2016-01-10T13:30:07Z</time>
      </trkpt>
      <trkpt lat="42.76993" lon="0.13436">
        <ele>2062.17</ele>
        <time>2016-01-10T13:30:08Z</time>
      </trkpt>
      <trkpt lat="42.77006" lon="0.13437">
        <ele>2054.96</ele>
        <time>2016-01-10T13:30:17Z</time>
      </trkpt>
      <trkpt lat="42.77014" lon="0.13428">
        <ele>2051.11</ele>
        <time>2016-01-10T13:30:21Z</time>
      </trkpt>
      <trkpt lat="42.77017" lon="0.1343">
        <ele>2047.26</ele>
        <time>2016-01-10T13:30:22Z</time>
      </trkpt>
      <trkpt lat="42.77026" lon="0.13425">
        <ele>2043.42</ele>
        <time>2016-01-10T13:30:26Z</time>
      </trkpt>
      <trkpt lat="42.77035" lon="0.13408">
        <ele>2037.65</ele>
        <time>2016-01-10T13:30:31Z</time>
      </trkpt>
      <trkpt lat="42.77044" lon="0.13404">
        <ele>2034.29</ele>
        <time>2016-01-10T13:30:33Z</time>
      </trkpt>
      <trkpt lat="42.77067" lon="0.13407">
        <ele>2030.92</ele>
        <time>2016-01-10T13:30:39Z</time>
      </trkpt>
      <trkpt lat="42.7707" lon="0.13409">
        <ele>2030.92</ele>
        <time>2016-01-10T13:30:40Z</time>
      </trkpt>
      <trkpt lat="42.77081" lon="0.13412">
        <ele>2034.29</ele>
        <time>2016-01-10T13:31:51Z</time>
      </trkpt>
      <trkpt lat="42.77088" lon="0.13415">
        <ele>2030.92</ele>
        <time>2016-01-10T13:32:15Z</time>
      </trkpt>
      <trkpt lat="42.77106" lon="0.13421">
        <ele>2027.56</ele>
        <time>2016-01-10T13:32:20Z</time>
      </trkpt>
      <trkpt lat="42.77146" lon="0.1344">
        <ele>2022.75</ele>
        <time>2016-01-10T13:32:54Z</time>
      </trkpt>
      <trkpt lat="42.77167" lon="0.13448">
        <ele>2021.31</ele>
        <time>2016-01-10T13:33:09Z</time>
      </trkpt>
      <trkpt lat="42.77188" lon="0.13452">
        <ele>2017.94</ele>
        <time>2016-01-10T13:33:26Z</time>
      </trkpt>
      <trkpt lat="42.77211" lon="0.13463">
        <ele>2014.1</ele>
        <time>2016-01-10T13:33:32Z</time>
      </trkpt>
      <trkpt lat="42.77227" lon="0.13464">
        <ele>2010.73</ele>
        <time>2016-01-10T13:33:38Z</time>
      </trkpt>
      <trkpt lat="42.77246" lon="0.13464">
        <ele>2007.85</ele>
        <time>2016-01-10T13:34:17Z</time>
      </trkpt>
      <trkpt lat="42.77247" lon="0.13466">
        <ele>2008.81</ele>
        <time>2016-01-10T13:34:30Z</time>
      </trkpt>
      <trkpt lat="42.77257" lon="0.13471">
        <ele>2005.45</ele>
        <time>2016-01-10T13:34:41Z</time>
      </trkpt>
      <trkpt lat="42.77264" lon="0.13475">
        <ele>2004.01</ele>
        <time>2016-01-10T13:35:12Z</time>
      </trkpt>
      <trkpt lat="42.77275" lon="0.13485">
        <ele>2000.16</ele>
        <time>2016-01-10T13:35:18Z</time>
      </trkpt>
      <trkpt lat="42.77282" lon="0.13478">
        <ele>1996.8</ele>
        <time>2016-01-10T13:35:21Z</time>
      </trkpt>
      <trkpt lat="42.77297" lon="0.13466">
        <ele>1992.47</ele>
        <time>2016-01-10T13:35:24Z</time>
      </trkpt>
      <trkpt lat="42.77335" lon="0.13438">
        <ele>1988.14</ele>
        <time>2016-01-10T13:35:45Z</time>
      </trkpt>
      <trkpt lat="42.77359" lon="0.13426">
        <ele>1981.41</ele>
        <time>2016-01-10T13:35:51Z</time>
      </trkpt>
      <trkpt lat="42.77367" lon="0.13424">
        <ele>1980.45</ele>
        <time>2016-01-10T13:35:53Z</time>
      </trkpt>
      <trkpt lat="42.7741" lon="0.13395">
        <ele>1976.13</ele>
        <time>2016-01-10T13:37:15Z</time>
      </trkpt>
      <trkpt lat="42.7742" lon="0.13389">
        <ele>1971.8</ele>
        <time>2016-01-10T13:37:31Z</time>
      </trkpt>
      <trkpt lat="42.77423" lon="0.13388">
        <ele>1971.8</ele>
        <time>2016-01-10T13:37:32Z</time>
      </trkpt>
      <trkpt lat="42.77431" lon="0.13387">
        <ele>1971.32</ele>
        <time>2016-01-10T13:37:39Z</time>
      </trkpt>
      <trkpt lat="42.77436" lon="0.13394">
        <ele>1967.96</ele>
        <time>2016-01-10T13:37:42Z</time>
      </trkpt>
      <trkpt lat="42.77436" lon="0.13417">
        <ele>1962.67</ele>
        <time>2016-01-10T13:37:48Z</time>
      </trkpt>
      <trkpt lat="42.77437" lon="0.13432">
        <ele>1956.9</ele>
        <time>2016-01-10T13:37:53Z</time>
      </trkpt>
      <trkpt lat="42.77443" lon="0.13443">
        <ele>1952.09</ele>
        <time>2016-01-10T13:37:56Z</time>
      </trkpt>
      <trkpt lat="42.77447" lon="0.13465">
        <ele>1945.36</ele>
        <time>2016-01-10T13:38:01Z</time>
      </trkpt>
      <trkpt lat="42.77451" lon="0.13472">
        <ele>1942.96</ele>
        <time>2016-01-10T13:38:03Z</time>
      </trkpt>
      <trkpt lat="42.77458" lon="0.13476">
        <ele>1947.77</ele>
        <time>2016-01-10T13:38:10Z</time>
      </trkpt>
      <trkpt lat="42.7746" lon="0.13473">
        <ele>1944.4</ele>
        <time>2016-01-10T13:38:41Z</time>
      </trkpt>
      <trkpt lat="42.77466" lon="0.13472">
        <ele>1943.44</ele>
        <time>2016-01-10T13:38:53Z</time>
      </trkpt>
      <trkpt lat="42.77473" lon="0.13465">
        <ele>1947.29</ele>
        <time>2016-01-10T13:39:43Z</time>
      </trkpt>
      <trkpt lat="42.7748" lon="0.13468">
        <ele>1944.4</ele>
        <time>2016-01-10T13:42:32Z</time>
      </trkpt>
      <trkpt lat="42.77514" lon="0.13498">
        <ele>1940.08</ele>
        <time>2016-01-10T13:42:53Z</time>
      </trkpt>
      <trkpt lat="42.7754" lon="0.13513">
        <ele>1936.71</ele>
        <time>2016-01-10T13:43:05Z</time>
      </trkpt>
      <trkpt lat="42.77561" lon="0.1352">
        <ele>1932.87</ele>
        <time>2016-01-10T13:43:52Z</time>
      </trkpt>
      <trkpt lat="42.77563" lon="0.13519">
        <ele>1932.87</ele>
        <time>2016-01-10T13:44:23Z</time>
      </trkpt>
      <trkpt lat="42.77601" lon="0.13459">
        <ele>1931.43</ele>
        <time>2016-01-10T13:45:35Z</time>
      </trkpt>
      <trkpt lat="42.77642" lon="0.13483">
        <ele>1927.1</ele>
        <time>2016-01-10T13:46:01Z</time>
      </trkpt>
      <trkpt lat="42.77677" lon="0.13508">
        <ele>1921.81</ele>
        <time>2016-01-10T13:46:15Z</time>
      </trkpt>
      <trkpt lat="42.77705" lon="0.13524">
        <ele>1918.45</ele>
        <time>2016-01-10T13:46:26Z</time>
      </trkpt>
      <trkpt lat="42.77708" lon="0.13526">
        <ele>1918.45</ele>
        <time>2016-01-10T13:46:27Z</time>
      </trkpt>
      <trkpt lat="42.77729" lon="0.13538">
        <ele>1915.08</ele>
        <time>2016-01-10T13:46:35Z</time>
      </trkpt>
      <trkpt lat="42.77757" lon="0.13546">
        <ele>1911.24</ele>
        <time>2016-01-10T13:46:42Z</time>
      </trkpt>
      <trkpt lat="42.77768" lon="0.13548">
        <ele>1910.28</ele>
        <time>2016-01-10T13:48:12Z</time>
      </trkpt>
      <trkpt lat="42.77785" lon="0.13548">
        <ele>1906.43</ele>
        <time>2016-01-10T13:48:25Z</time>
      </trkpt>
      <trkpt lat="42.77789" lon="0.13547">
        <ele>1906.43</ele>
        <time>2016-01-10T13:48:26Z</time>
      </trkpt>
      <trkpt lat="42.77803" lon="0.13545">
        <ele>1903.07</ele>
        <time>2016-01-10T13:48:29Z</time>
      </trkpt>
      <trkpt lat="42.77815" lon="0.13544">
        <ele>1899.22</ele>
        <time>2016-01-10T13:48:31Z</time>
      </trkpt>
      <trkpt lat="42.77827" lon="0.13544">
        <ele>1895.86</ele>
        <time>2016-01-10T13:48:33Z</time>
      </trkpt>
      <trkpt lat="42.77846" lon="0.13552">
        <ele>1889.61</ele>
        <time>2016-01-10T13:48:36Z</time>
      </trkpt>
      <trkpt lat="42.77852" lon="0.13556">
        <ele>1891.05</ele>
        <time>2016-01-10T13:48:37Z</time>
      </trkpt>
      <trkpt lat="42.7786" lon="0.13567">
        <ele>1885.28</ele>
        <time>2016-01-10T13:48:39Z</time>
      </trkpt>
      <trkpt lat="42.77868" lon="0.13578">
        <ele>1884.32</ele>
        <time>2016-01-10T13:48:41Z</time>
      </trkpt>
      <trkpt lat="42.77873" lon="0.13584">
        <ele>1880</ele>
        <time>2016-01-10T13:48:42Z</time>
      </trkpt>
      <trkpt lat="42.7788" lon="0.13594">
        <ele>1878.55</ele>
        <time>2016-01-10T13:48:44Z</time>
      </trkpt>
      <trkpt lat="42.77898" lon="0.13614">
        <ele>1873.75</ele>
        <time>2016-01-10T13:48:49Z</time>
      </trkpt>
      <trkpt lat="42.77902" lon="0.13617">
        <ele>1878.07</ele>
        <time>2016-01-10T13:48:50Z</time>
      </trkpt>
      <trkpt lat="42.77952" lon="0.13672">
        <ele>1874.71</ele>
        <time>2016-01-10T13:49:44Z</time>
      </trkpt>
      <trkpt lat="42.77994" lon="0.13718">
        <ele>1873.27</ele>
        <time>2016-01-10T13:51:29Z</time>
      </trkpt>
      <trkpt lat="42.78002" lon="0.13714">
        <ele>1874.23</ele>
        <time>2016-01-10T13:51:50Z</time>
      </trkpt>
      <trkpt lat="42.78058" lon="0.13786">
        <ele>1878.07</ele>
        <time>2016-01-10T13:54:30Z</time>
      </trkpt>
      <trkpt lat="42.78125" lon="0.13856">
        <ele>1881.92</ele>
        <time>2016-01-10T13:56:36Z</time>
      </trkpt>
      <trkpt lat="42.78139" lon="0.13877">
        <ele>1886.24</ele>
        <time>2016-01-10T13:57:22Z</time>
      </trkpt>
      <trkpt lat="42.7815" lon="0.13893">
        <ele>1883.36</ele>
        <time>2016-01-10T13:57:52Z</time>
      </trkpt>
      <trkpt lat="42.78162" lon="0.13904">
        <ele>1881.44</ele>
        <time>2016-01-10T13:58:20Z</time>
      </trkpt>
      <trkpt lat="42.78165" lon="0.13907">
        <ele>1882.88</ele>
        <time>2016-01-10T13:58:31Z</time>
      </trkpt>
      <trkpt lat="42.78179" lon="0.13922">
        <ele>1880.48</ele>
        <time>2016-01-10T13:58:57Z</time>
      </trkpt>
      <trkpt lat="42.78213" lon="0.13963">
        <ele>1880</ele>
        <time>2016-01-10T14:01:16Z</time>
      </trkpt>
      <trkpt lat="42.78261" lon="0.14052">
        <ele>1877.11</ele>
        <time>2016-01-10T14:02:44Z</time>
      </trkpt>
      <trkpt lat="42.78277" lon="0.14067">
        <ele>1875.67</ele>
        <time>2016-01-10T14:03:06Z</time>
      </trkpt>
      <trkpt lat="42.78284" lon="0.14074">
        <ele>1877.11</ele>
        <time>2016-01-10T14:03:15Z</time>
      </trkpt>
      <trkpt lat="42.78291" lon="0.14095">
        <ele>1872.79</ele>
        <time>2016-01-10T14:03:29Z</time>
      </trkpt>
      <trkpt lat="42.78299" lon="0.1412">
        <ele>1871.82</ele>
        <time>2016-01-10T14:03:43Z</time>
      </trkpt>
      <trkpt lat="42.78301" lon="0.14124">
        <ele>1870.38</ele>
        <time>2016-01-10T14:03:54Z</time>
      </trkpt>
      <trkpt lat="42.78298" lon="0.14134">
        <ele>1867.02</ele>
        <time>2016-01-10T14:03:58Z</time>
      </trkpt>
      <trkpt lat="42.78296" lon="0.14137">
        <ele>1867.02</ele>
        <time>2016-01-10T14:03:59Z</time>
      </trkpt>
      <trkpt lat="42.78294" lon="0.14147">
        <ele>1869.9</ele>
        <time>2016-01-10T14:04:55Z</time>
      </trkpt>
      <trkpt lat="42.78298" lon="0.14153">
        <ele>1871.34</ele>
        <time>2016-01-10T14:05:59Z</time>
      </trkpt>
      <trkpt lat="42.78301" lon="0.14154">
        <ele>1871.34</ele>
        <time>2016-01-10T14:06:02Z</time>
      </trkpt>
      <trkpt lat="42.78343" lon="0.14259">
        <ele>1875.19</ele>
        <time>2016-01-10T14:07:55Z</time>
      </trkpt>
      <trkpt lat="42.78347" lon="0.14283">
        <ele>1876.63</ele>
        <time>2016-01-10T14:08:19Z</time>
      </trkpt>
      <trkpt lat="42.78349" lon="0.1429">
        <ele>1876.63</ele>
        <time>2016-01-10T14:08:25Z</time>
      </trkpt>
      <trkpt lat="42.78342" lon="0.14307">
        <ele>1879.51</ele>
        <time>2016-01-10T14:10:18Z</time>
      </trkpt>
      <trkpt lat="42.78345" lon="0.14338">
        <ele>1876.15</ele>
        <time>2016-01-10T14:10:32Z</time>
      </trkpt>
      <trkpt lat="42.78361" lon="0.14377">
        <ele>1870.38</ele>
        <time>2016-01-10T14:10:40Z</time>
      </trkpt>
      <trkpt lat="42.78363" lon="0.14382">
        <ele>1870.38</ele>
        <time>2016-01-10T14:10:41Z</time>
      </trkpt>
      <trkpt lat="42.78409" lon="0.14452">
        <ele>1864.61</ele>
        <time>2016-01-10T14:10:56Z</time>
      </trkpt>
      <trkpt lat="42.78434" lon="0.14489">
        <ele>1860.29</ele>
        <time>2016-01-10T14:11:01Z</time>
      </trkpt>
      <trkpt lat="42.78445" lon="0.14506">
        <ele>1856.92</ele>
        <time>2016-01-10T14:11:03Z</time>
      </trkpt>
      <trkpt lat="42.78474" lon="0.14551">
        <ele>1851.16</ele>
        <time>2016-01-10T14:11:08Z</time>
      </trkpt>
      <trkpt lat="42.78486" lon="0.1458">
        <ele>1846.35</ele>
        <time>2016-01-10T14:11:11Z</time>
      </trkpt>
      <trkpt lat="42.78489" lon="0.1459">
        <ele>1846.35</ele>
        <time>2016-01-10T14:11:12Z</time>
      </trkpt>
      <trkpt lat="42.78501" lon="0.14625">
        <ele>1842.5</ele>
        <time>2016-01-10T14:11:16Z</time>
      </trkpt>
      <trkpt lat="42.7851" lon="0.14653">
        <ele>1836.74</ele>
        <time>2016-01-10T14:11:20Z</time>
      </trkpt>
      <trkpt lat="42.78514" lon="0.14662">
        <ele>1839.14</ele>
        <time>2016-01-10T14:11:22Z</time>
      </trkpt>
      <trkpt lat="42.78525" lon="0.14713">
        <ele>1833.85</ele>
        <time>2016-01-10T14:11:33Z</time>
      </trkpt>
      <trkpt lat="42.78527" lon="0.14725">
        <ele>1834.81</ele>
        <time>2016-01-10T14:11:35Z</time>
      </trkpt>
      <trkpt lat="42.78532" lon="0.14745">
        <ele>1833.85</ele>
        <time>2016-01-10T14:11:39Z</time>
      </trkpt>
      <trkpt lat="42.78558" lon="0.14836">
        <ele>1828.56</ele>
        <time>2016-01-10T14:11:59Z</time>
      </trkpt>
      <trkpt lat="42.78572" lon="0.1489">
        <ele>1824.24</ele>
        <time>2016-01-10T14:12:11Z</time>
      </trkpt>
      <trkpt lat="42.78573" lon="0.14895">
        <ele>1824.24</ele>
        <time>2016-01-10T14:12:12Z</time>
      </trkpt>
      <trkpt lat="42.7859" lon="0.14966">
        <ele>1821.84</ele>
        <time>2016-01-10T14:13:02Z</time>
      </trkpt>
      <trkpt lat="42.78618" lon="0.15048">
        <ele>1819.91</ele>
        <time>2016-01-10T14:13:35Z</time>
      </trkpt>
      <trkpt lat="42.78619" lon="0.15068">
        <ele>1819.43</ele>
        <time>2016-01-10T14:13:46Z</time>
      </trkpt>
      <trkpt lat="42.7862" lon="0.15073">
        <ele>1818.47</ele>
        <time>2016-01-10T14:13:49Z</time>
      </trkpt>
      <trkpt lat="42.78635" lon="0.15178">
        <ele>1821.84</ele>
        <time>2016-01-10T14:14:54Z</time>
      </trkpt>
      <trkpt lat="42.78638" lon="0.15234">
        <ele>1825.2</ele>
        <time>2016-01-10T14:15:26Z</time>
      </trkpt>
      <trkpt lat="42.78642" lon="0.15274">
        <ele>1829.53</ele>
        <time>2016-01-10T14:15:49Z</time>
      </trkpt>
      <trkpt lat="42.78646" lon="0.15322">
        <ele>1830.49</ele>
        <time>2016-01-10T14:16:14Z</time>
      </trkpt>
      <trkpt lat="42.78646" lon="0.15325">
        <ele>1830.49</ele>
        <time>2016-01-10T14:16:16Z</time>
      </trkpt>
      <trkpt lat="42.78654" lon="0.15347">
        <ele>1829.05</ele>
        <time>2016-01-10T14:17:05Z</time>
      </trkpt>
      <trkpt lat="42.78663" lon="0.15359">
        <ele>1828.08</ele>
        <time>2016-01-10T14:17:43Z</time>
      </trkpt>
      <trkpt lat="42.78673" lon="0.15417">
        <ele>1828.56</ele>
        <time>2016-01-10T14:18:41Z</time>
      </trkpt>
    </trkseg>
  </trk>
</gpx>